Time;durP1;ratioP1;P1;durP2;ratioP2;P2;SDS_P1;SDS_P2;PMS_P1;PMS_P2;Temp;Humidity;BMP_temperature;BMP_pressure;BME280_temperature;BME280_humidity;BME280_pressure;Samples;Min_cycle;Max_cycle;Signal;HPM_P1;HPM_P2
2023/05/07 04:43:10;;;;;;;;;;;;;;;14.22;72.92;98118.88;5486809;23;20027;-62
2023/05/07 04:45:36;;;;;;;;;;;;;;;14.28;72.92;98123.63;4821783;29;20015;-62
2023/05/07 04:48:01;;;;;;;;;;;;;;;14.26;72.86;98122.91;4819570;29;19920;-62
2023/05/07 04:50:26;;;;;;;;;;;;;;;14.23;72.19;98124.00;4837115;29;20077;-62
2023/05/07 04:52:51;;;;;;;;;;;;;;;14.25;72.01;98123.91;4824945;29;20004;-62
2023/05/07 04:55:17;;;;;;;;;;;;;;;14.21;71.76;98133.00;4841674;29;20016;-62
2023/05/07 04:57:42;;;;;;;;;;;;;;;14.20;71.97;98126.06;4839764;29;19921;-62
2023/05/07 05:00:09;;;;;;;;;;;;;;;14.29;71.75;98130.56;4837588;29;19920;-62
2023/05/07 05:02:34;;;;;;;;;;;;;;;14.42;72.18;98127.75;4822549;29;19931;-62
2023/05/07 05:05:01;;;;;;;;;;;;;;;14.51;71.64;98126.13;4838387;29;19920;-62
2023/05/07 05:07:26;;;;;;;;;;;;;;;14.62;71.31;98131.31;4825837;29;20434;-62
2023/05/07 05:09:51;;;;;;;;;;;;;;;14.71;71.39;98128.72;4819545;29;19921;-62
2023/05/07 05:12:16;;;;;;;;;;;;;;;14.83;70.84;98136.53;4839870;29;19927;-62
2023/05/07 05:14:42;;;;;;;;;;;;;;;14.92;70.67;98135.75;4822921;29;20410;-62
2023/05/07 05:17:07;;;;;;;;;;;;;;;14.86;69.65;98131.81;4833387;29;20386;-62
2023/05/07 05:19:33;;;;;;;;;;;;;;;14.98;69.20;98137.03;4832692;29;19928;-62
2023/05/07 05:21:58;;;;;;;;;;;;;;;15.08;68.69;98137.88;4830061;29;19920;-60
2023/05/07 05:24:23;;;;;;;;;;;;;;;15.16;68.73;98135.41;4834320;29;19916;-62
2023/05/07 05:26:49;;;;;;;;;;;;;;;15.26;68.11;98140.72;4833992;29;19999;-63
2023/05/07 05:29:14;;;;;;;;;;;;;;;15.28;67.67;98134.31;4820690;29;19921;-62
2023/05/07 05:31:39;;;;;;;;;;;;;;;15.32;67.55;98132.25;4836323;29;19963;-62
2023/05/07 05:34:04;;;;;;;;;;;;;;;15.35;67.54;98135.44;4831217;29;19972;-63
2023/05/07 05:36:30;;;;;;;;;;;;;;;15.42;67.59;98136.56;4822258;29;19974;-63
2023/05/07 05:38:55;;;;;;;;;;;;;;;15.49;67.23;98141.31;4840615;29;19920;-64
2023/05/07 05:41:21;;;;;;;;;;;;;;;15.54;66.75;98144.34;4842555;29;19920;-61
2023/05/07 05:43:46;;;;;;;;;;;;;;;15.55;66.44;98151.31;4840480;29;19934;-63
2023/05/07 05:46:11;;;;;;;;;;;;;;;16.35;66.61;98152.84;4833456;29;19927;-61
2023/05/07 05:48:37;;;;;;;;;;;;;;;17.36;61.93;98150.34;4819217;29;20015;-62
2023/05/07 05:51:02;;;;;;;;;;;;;;;16.73;61.39;98143.13;4839260;29;19927;-62
2023/05/07 05:53:27;;;;;;;;;;;;;;;16.26;62.63;98143.94;4839498;29;19920;-62
2023/05/07 05:55:52;;;;;;;;;;;;;;;16.05;63.21;98149.41;4814915;29;19927;-63
2023/05/07 05:58:18;;;;;;;;;;;;;;;16.05;63.38;98137.97;4838006;29;19922;-62
2023/05/07 06:00:43;;;;;;;;;;;;;;;16.05;63.37;98146.75;4825111;29;19920;-63
2023/05/07 06:03:10;;;;;;;;;;;;;;;15.96;63.47;98152.88;4822705;29;19925;-61
2023/05/07 06:05:35;;;;;;;;;;;;;;;15.96;64.02;98149.41;4828341;29;19970;-62
2023/05/07 06:08:00;;;;;;;;;;;;;;;15.97;64.08;98151.09;4836459;29;19929;-63
2023/05/07 06:10:26;;;;;;;;;;;;;;;16.01;63.33;98150.66;4839479;29;19946;-61
2023/05/07 06:12:52;;;;;;;;;;;;;;;16.05;63.51;98153.84;4813506;29;19925;-62
2023/05/07 06:15:17;;;;;;;;;;;;;;;16.08;63.21;98150.94;4838948;29;19927;-63
2023/05/07 06:17:42;;;;;;;;;;;;;;;16.05;63.42;98153.84;4829307;29;20010;-62
2023/05/07 06:20:07;;;;;;;;;;;;;;;16.17;62.66;98154.53;4840627;29;20016;-62
2023/05/07 06:22:33;;;;;;;;;;;;;;;16.16;62.82;98158.97;4817451;29;20007;-63
2023/05/07 06:24:58;;;;;;;;;;;;;;;16.21;62.33;98159.41;4819096;29;19916;-62
2023/05/07 06:27:23;;;;;;;;;;;;;;;16.26;62.54;98162.44;4840061;29;19920;-62
2023/05/07 06:29:48;;;;;;;;;;;;;;;16.41;62.13;98164.66;4823989;29;20383;-62
2023/05/07 06:32:14;;;;;;;;;;;;;;;16.54;61.89;98170.47;4828971;29;19929;-62
2023/05/07 06:34:39;;;;;;;;;;;;;;;16.61;61.85;98167.09;4822552;29;20289;-63
2023/05/07 06:37:05;;;;;;;;;;;;;;;16.75;61.23;98168.47;4834345;29;19917;-63
2023/05/07 06:39:30;;;;;;;;;;;;;;;16.75;61.21;98173.78;4840339;29;19920;-63
2023/05/07 06:41:55;;;;;;;;;;;;;;;16.94;60.09;98172.88;4822803;29;19925;-63
2023/05/07 06:44:20;;;;;;;;;;;;;;;17.09;60.09;98170.56;4834831;29;20402;-62
2023/05/07 06:46:45;;;;;;;;;;;;;;;17.18;59.68;98179.47;4836370;29;20370;-62
2023/05/07 06:49:12;;;;;;;;;;;;;;;17.29;59.50;98172.13;4824085;29;20488;-62
2023/05/07 06:51:37;;;;;;;;;;;;;;;17.35;58.96;98177.84;4832773;29;19927;-62
2023/05/07 06:54:04;;;;;;;;;;;;;;;17.30;59.10;98179.09;4841074;29;19920;-62
2023/05/07 06:56:29;;;;;;;;;;;;;;;17.39;59.44;98179.22;4832552;29;19920;-63
2023/05/07 06:58:54;;;;;;;;;;;;;;;17.43;59.19;98183.22;4823552;29;19969;-62
2023/05/07 07:01:20;;;;;;;;;;;;;;;17.53;58.66;98181.34;4836792;29;19978;-63
2023/05/07 07:03:45;;;;;;;;;;;;;;;17.77;58.08;98186.94;4838436;29;20020;-63
2023/05/07 07:06:10;;;;;;;;;;;;;;;17.82;58.04;98182.97;4833670;29;19925;-63
2023/05/07 07:08:35;;;;;;;;;;;;;;;17.85;58.43;98177.38;4812866;29;19921;-63
2023/05/07 07:11:00;;;;;;;;;;;;;;;17.98;57.99;98172.53;4832250;29;19931;-64
2023/05/07 07:13:26;;;;;;;;;;;;;;;18.11;57.29;98172.97;4821621;29;20035;-63
2023/05/07 07:15:51;;;;;;;;;;;;;;;18.30;56.64;98168.47;4816353;29;20015;-62
2023/05/07 07:18:16;;;;;;;;;;;;;;;18.26;56.62;98174.06;4802423;29;19964;-62
2023/05/07 07:20:44;;;;;;;;;;;;;;;18.43;56.15;98176.84;4835760;29;20394;-62
2023/05/07 07:23:09;;;;;;;;;;;;;;;18.48;56.67;98178.06;4835669;29;19928;-63
2023/05/07 07:25:34;;;;;;;;;;;;;;;18.63;55.71;98178.31;4840590;29;19928;-62
2023/05/07 07:27:59;;;;;;;;;;;;;;;18.66;55.22;98172.69;4840301;29;19921;-63
2023/05/07 07:30:25;;;;;;;;;;;;;;;18.82;55.20;98165.81;4831700;29;19928;-62
2023/05/07 07:32:52;;;;;;;;;;;;;;;18.90;54.67;98174.69;4838959;29;19931;-62
2023/05/07 07:35:17;;;;;;;;;;;;;;;19.03;54.26;98168.09;4834666;29;19920;-61
2023/05/07 07:37:42;;;;;;;;;;;;;;;19.01;54.51;98165.59;4831798;29;20016;-62
2023/05/07 07:40:08;;;;;;;;;;;;;;;19.36;58.10;98175.19;4828554;29;19956;-61
2023/05/07 07:42:33;;;;;;;;;;;;;;;19.54;57.30;98183.06;4838309;29;19964;-61
2023/05/07 07:44:58;;;;;;;;;;;;;;;19.62;56.37;98177.78;4821872;29;20409;-61
2023/05/07 07:47:24;;;;;;;;;;;;;;;19.68;55.33;98179.81;4828027;29;19965;-61
2023/05/07 07:49:49;;;;;;;;;;;;;;;19.68;54.93;98166.50;4831700;29;19917;-61
2023/05/07 07:52:14;;;;;;;;;;;;;;;19.79;53.70;98164.53;4836149;29;19921;-62
2023/05/07 07:54:39;;;;;;;;;;;;;;;19.90;53.34;98170.34;4842673;29;20474;-61
2023/05/07 07:57:05;;;;;;;;;;;;;;;20.00;53.26;98172.88;4827220;29;20298;-62
2023/05/07 07:59:30;;;;;;;;;;;;;;;20.20;52.27;98169.84;4824037;29;19921;-62
2023/05/07 08:01:56;;;;;;;;;;;;;;;20.38;51.51;98175.84;4836540;29;19921;-62
2023/05/07 08:04:21;;;;;;;;;;;;;;;20.52;51.26;98169.03;4840833;29;19924;-61
2023/05/07 08:06:47;;;;;;;;;;;;;;;20.48;51.11;98167.69;4820949;29;19947;-62
2023/05/07 08:09:12;;;;;;;;;;;;;;;20.67;50.81;98174.50;4840034;29;20011;-62
2023/05/07 08:11:38;;;;;;;;;;;;;;;20.53;50.71;98174.19;4832565;29;20032;-60
2023/05/07 08:14:03;;;;;;;;;;;;;;;20.46;50.91;98177.66;4836287;29;20008;-62
2023/05/07 08:16:28;;;;;;;;;;;;;;;20.52;50.75;98177.03;4822799;29;19921;-62
2023/05/07 08:18:53;;;;;;;;;;;;;;;20.68;50.70;98186.81;4837551;29;19936;-62
2023/05/07 08:21:20;;;;;;;;;;;;;;;20.98;50.12;98182.56;4838683;29;20307;-61
2023/05/07 08:23:45;;;;;;;;;;;;;;;21.13;49.63;98191.53;4842121;29;19925;-62
2023/05/07 08:26:10;;;;;;;;;;;;;;;20.92;49.62;98185.91;4839888;29;19927;-62
2023/05/07 08:28:35;;;;;;;;;;;;;;;20.96;49.34;98197.94;4823177;29;19921;-62
2023/05/07 08:31:00;;;;;;;;;;;;;;;21.00;49.94;98197.41;4829197;29;20003;-62
2023/05/07 08:33:26;;;;;;;;;;;;;;;21.15;49.67;98199.34;4823203;29;19935;-61
2023/05/07 08:35:51;;;;;;;;;;;;;;;21.08;49.29;98200.03;4836508;29;20570;-62
2023/05/07 08:38:16;;;;;;;;;;;;;;;21.35;49.09;98195.31;4840584;29;20003;-62
2023/05/07 08:40:41;;;;;;;;;;;;;;;21.14;48.33;98193.19;4826314;29;20019;-61
2023/05/07 08:43:07;;;;;;;;;;;;;;;21.64;48.73;98199.97;4842094;29;19999;-62
2023/05/07 08:45:35;;;;;;;;;;;;;;;21.96;49.66;98188.28;4841587;29;19927;-62
2023/05/07 08:48:05;;;;;;;;;;;;;;;21.73;47.21;98190.09;4825933;29;20393;-62
2023/05/07 08:50:30;;;;;;;;;;;;;;;22.11;46.73;98182.16;4818351;29;19956;-62
2023/05/07 08:52:59;;;;;;;;;;;;;;;22.69;48.03;98181.47;4808232;29;19928;-62
2023/05/07 08:55:25;;;;;;;;;;;;;;;22.41;45.27;98172.41;4832176;29;19929;-64
2023/05/07 08:57:52;;;;;;;;;;;;;;;23.02;47.64;98175.81;4842164;29;20015;-62
2023/05/07 09:00:17;;;;;;;;;;;;;;;23.35;47.26;98176.25;4841147;29;20335;-62
2023/05/07 09:02:42;;;;;;;;;;;;;;;23.69;46.20;98180.16;4825163;29;19924;-62
2023/05/07 09:05:08;;;;;;;;;;;;;;;24.07;46.56;98177.25;4822600;29;19924;-62
2023/05/07 09:07:33;;;;;;;;;;;;;;;24.30;46.55;98172.50;4836750;29;20430;-63
2023/05/07 09:10:01;;;;;;;;;;;;;;;24.13;44.08;98171.13;4835549;29;19920;-62
2023/05/07 09:12:26;;;;;;;;;;;;;;;23.50;43.59;98180.72;4838401;29;19936;-62
2023/05/07 09:14:51;;;;;;;;;;;;;;;23.80;44.81;98181.50;4839692;29;19924;-62
2023/05/07 09:17:16;;;;;;;;;;;;;;;23.28;45.15;98178.00;4831301;29;19920;-62
2023/05/07 09:19:42;;;;;;;;;;;;;;;23.46;44.50;98165.03;4839662;29;19977;-62
2023/05/07 09:22:07;;;;;;;;;;;;;;;23.66;43.70;98159.09;4819269;29;19920;-62
2023/05/07 09:24:34;;;;;;;;;;;;;;;24.05;43.90;98157.84;4821826;29;19976;-61
2023/05/07 09:27:03;;;;;;;;;;;;;;;24.45;42.45;98167.09;4841669;29;19920;-63
2023/05/07 09:29:37;;;;;;;;;;;;;;;24.78;42.86;98161.97;4821362;29;19920;-63
2023/05/07 09:32:05;;;;;;;;;;;;;;;25.09;42.99;98144.59;4842287;29;19928;-61
2023/05/07 09:34:30;;;;;;;;;;;;;;;24.87;41.27;98147.34;4812276;29;19921;-60
2023/05/07 09:36:56;;;;;;;;;;;;;;;24.95;42.46;98154.44;4816592;29;20390;-60
2023/05/07 09:39:21;;;;;;;;;;;;;;;25.30;41.80;98165.97;4822054;29;19928;-61
2023/05/07 09:41:47;;;;;;;;;;;;;;;25.48;42.16;98161.91;4840452;29;19925;-61
2023/05/07 09:44:13;;;;;;;;;;;;;;;25.17;40.19;98168.59;4835061;29;19928;-60
2023/05/07 09:46:38;;;;;;;;;;;;;;;25.47;41.58;98160.25;4819967;29;19963;-62
2023/05/07 09:49:04;;;;;;;;;;;;;;;26.12;41.68;98148.03;4805681;29;19963;-60
2023/05/07 09:51:39;;;;;;;;;;;;;;;26.47;40.57;98143.28;4817920;29;19948;-61
2023/05/07 09:54:05;;;;;;;;;;;;;;;26.87;39.32;98153.16;4818169;29;19921;-62
2023/05/07 09:56:30;;;;;;;;;;;;;;;27.31;39.21;98159.66;4818948;29;19927;-61
2023/05/07 09:58:56;;;;;;;;;;;;;;;27.65;38.27;98151.22;4822073;29;19999;-61
2023/05/07 10:01:22;;;;;;;;;;;;;;;28.02;37.53;98153.31;4816712;29;19940;-61
2023/05/07 10:03:47;;;;;;;;;;;;;;;28.47;38.09;98147.78;4817997;29;19977;-62
2023/05/07 10:06:12;;;;;;;;;;;;;;;28.34;34.24;98154.91;4819551;29;19925;-61
2023/05/07 10:08:37;;;;;;;;;;;;;;;28.56;35.85;98152.69;4820457;29;19928;-61
2023/05/07 10:11:03;;;;;;;;;;;;;;;28.99;35.17;98151.84;4832849;29;19921;-61
2023/05/07 10:13:28;;;;;;;;;;;;;;;29.61;35.10;98156.31;4820781;29;20386;-61
2023/05/07 10:15:53;;;;;;;;;;;;;;;29.78;33.97;98138.41;4833353;29;20444;-63
2023/05/07 10:18:22;;;;;;;;;;;;;;;29.70;32.69;98142.25;4817703;29;20418;-61
2023/05/07 10:20:47;;;;;;;;;;;;;;;30.16;32.14;98145.31;4839239;29;19928;-61
2023/05/07 10:23:12;;;;;;;;;;;;;;;29.88;32.87;98144.09;4818520;29;19977;-62
2023/05/07 10:25:38;;;;;;;;;;;;;;;29.63;33.10;98146.94;4824336;29;19921;-61
2023/05/07 10:28:04;;;;;;;;;;;;;;;29.43;32.25;98149.88;4839289;29;20371;-61
2023/05/07 10:30:38;;;;;;;;;;;;;;;28.38;32.66;98144.50;4821338;29;19928;-61
2023/05/07 10:33:05;;;;;;;;;;;;;;;28.80;32.48;98136.66;4821278;29;19999;-61
2023/05/07 10:35:32;;;;;;;;;;;;;;;29.29;32.12;98135.72;4833486;29;19921;-61
2023/05/07 10:37:57;;;;;;;;;;;;;;;28.81;32.13;98141.03;4824892;29;20409;-59
2023/05/07 10:40:22;;;;;;;;;;;;;;;29.91;32.51;98142.81;4821775;29;19920;-62
2023/05/07 10:42:55;;;;;;;;;;;;;;;30.54;32.13;98141.38;4809976;29;19940;-61
2023/05/07 10:45:21;;;;;;;;;;;;;;;30.89;30.63;98138.69;4836751;29;19924;-62
2023/05/07 10:48:04;;;;;;;;;;;;;;;31.07;30.99;98135.00;4817412;29;19921;-60
2023/05/07 10:50:29;;;;;;;;;;;;;;;31.31;30.75;98125.75;4833010;29;19927;-61
2023/05/07 10:53:33;;;;;;;;;;;;;;;32.00;29.47;98130.31;4834069;29;19916;-59
2023/05/07 10:56:17;;;;;;;;;;;;;;;32.18;28.03;98124.66;4781626;29;19921;-62
2023/05/07 10:58:42;;;;;;;;;;;;;;;30.95;28.12;98125.00;4779881;30;19926;-61
2023/05/07 11:01:07;;;;;;;;;;;;;;;30.76;27.54;98115.38;4780930;29;20399;-62
2023/05/07 11:03:32;;;;;;;;;;;;;;;31.84;28.70;98121.09;4781555;30;20297;-61
2023/05/07 11:06:13;;;;;;;;;;;;;;;32.83;27.68;98113.19;4777520;29;19926;-62
2023/05/07 11:09:05;;;;;;;;;;;;;;;32.97;25.30;98110.94;4780748;29;19970;-61
2023/05/07 11:11:43;;;;;;;;;;;;;;;32.47;25.33;98100.16;4772657;29;19922;-61
2023/05/07 11:14:09;;;;;;;;;;;;;;;32.54;26.16;98108.97;4768048;29;19990;-61
2023/05/07 11:16:36;;;;;;;;;;;;;;;32.74;26.23;98105.72;4773053;29;20387;-62
2023/05/07 11:19:01;;;;;;;;;;;;;;;32.67;26.96;98103.19;4768258;30;20019;-61
2023/05/07 11:21:33;;;;;;;;;;;;;;;32.82;26.59;98107.97;4783449;29;20373;-62
2023/05/07 11:23:58;;;;;;;;;;;;;;;32.18;26.39;98102.97;4784973;29;19926;-62
2023/05/07 11:26:24;;;;;;;;;;;;;;;33.07;27.56;98102.94;4802082;29;20455;-62
2023/05/07 11:28:49;;;;;;;;;;;;;;;33.50;26.95;98103.16;4829686;29;19949;-62
2023/05/07 11:31:16;;;;;;;;;;;;;;;33.54;25.03;98101.56;4845641;29;20395;-61
2023/05/07 11:33:41;;;;;;;;;;;;;;;34.31;25.37;98103.09;4823962;29;20227;-60
2023/05/07 11:36:07;;;;;;;;;;;;;;;34.86;25.21;98096.38;4804492;29;20391;-61
2023/05/07 11:38:36;;;;;;;;;;;;;;;35.10;23.12;98098.66;4806695;29;19953;-61
2023/05/07 11:41:02;;;;;;;;;;;;;;;35.32;23.29;98095.75;4822227;29;19939;-62
2023/05/07 11:43:27;;;;;;;;;;;;;;;34.64;23.91;98101.16;4843718;29;19940;-63
2023/05/07 11:45:52;;;;;;;;;;;;;;;34.90;23.86;98093.94;4833798;29;19917;-62
2023/05/07 11:48:18;;;;;;;;;;;;;;;36.05;24.69;98093.75;4831759;29;19920;-62
2023/05/07 11:50:52;;;;;;;;;;;;;;;36.66;23.33;98092.06;4844619;29;19932;-63
2023/05/07 11:53:18;;;;;;;;;;;;;;;36.31;23.00;98089.09;4826385;29;20379;-62
2023/05/07 11:55:43;;;;;;;;;;;;;;;35.98;21.96;98087.69;4834924;29;19927;-60
2023/05/07 11:58:10;;;;;;;;;;;;;;;35.18;23.27;98095.44;4826727;29;19929;-61
2023/05/07 12:00:35;;;;;;;;;;;;;;;35.01;23.74;98095.66;4832373;29;19925;-60
2023/05/07 12:03:04;;;;;;;;;;;;;;;33.18;22.55;98095.72;4826549;29;19932;-60
2023/05/07 12:05:29;;;;;;;;;;;;;;;31.44;26.88;98092.97;4820773;29;19921;-62
2023/05/07 12:07:57;;;;;;;;;;;;;;;31.33;27.59;98093.03;4833838;29;19923;-64
2023/05/07 12:10:24;;;;;;;;;;;;;;;31.21;27.82;98084.91;4827502;29;19921;-63
2023/05/07 12:12:49;;;;;;;;;;;;;;;32.31;26.55;98085.50;4842341;29;20335;-63
2023/05/07 12:15:18;;;;;;;;;;;;;;;32.99;27.50;98086.25;4821519;29;19917;-62
2023/05/07 12:17:43;;;;;;;;;;;;;;;32.95;27.25;98085.06;4824474;29;20015;-63
2023/05/07 12:20:08;;;;;;;;;;;;;;;31.84;26.21;98089.34;4820088;29;20405;-62
2023/05/07 12:22:33;;;;;;;;;;;;;;;32.06;27.24;98083.22;4826152;29;20019;-63
2023/05/07 12:24:59;;;;;;;;;;;;;;;32.02;27.38;98085.63;4822573;29;19928;-64
2023/05/07 12:27:25;;;;;;;;;;;;;;;31.55;27.42;98082.31;4836305;29;19921;-64
2023/05/07 12:29:50;;;;;;;;;;;;;;;32.31;26.65;98086.34;4828999;29;20356;-63
2023/05/07 12:32:15;;;;;;;;;;;;;;;33.12;26.66;98085.84;4823781;29;19917;-64
2023/05/07 12:34:41;;;;;;;;;;;;;;;32.96;25.57;98086.75;4842259;29;19920;-63
2023/05/07 12:37:06;;;;;;;;;;;;;;;32.92;25.11;98080.16;4825521;29;19927;-64
2023/05/07 12:39:32;;;;;;;;;;;;;;;34.32;25.37;98087.59;4818902;29;20168;-63
2023/05/07 12:42:01;;;;;;;;;;;;;;;34.61;23.08;98083.44;4838745;29;19920;-64
2023/05/07 12:44:29;;;;;;;;;;;;;;;35.25;22.84;98079.66;4820923;29;19924;-64
2023/05/07 12:46:55;;;;;;;;;;;;;;;34.99;22.38;98069.72;4837868;29;19927;-64
2023/05/07 12:49:20;;;;;;;;;;;;;;;34.67;22.47;98067.94;4817887;29;19917;-64
2023/05/07 12:51:48;;;;;;;;;;;;;;;35.01;21.89;98073.00;4829540;29;19921;-64
2023/05/07 12:54:14;;;;;;;;;;;;;;;36.04;22.60;98069.47;4815337;29;19921;-64
2023/05/07 12:56:39;;;;;;;;;;;;;;;37.09;22.15;98076.06;4815808;29;19928;-64
2023/05/07 12:59:04;;;;;;;;;;;;;;;37.74;21.30;98074.88;4819643;29;20383;-64
2023/05/07 13:01:30;;;;;;;;;;;;;;;38.31;20.26;98063.50;4842388;29;19921;-64
2023/05/07 13:03:56;;;;;;;;;;;;;;;37.21;19.74;98065.63;4837118;29;19921;-64
2023/05/07 13:06:21;;;;;;;;;;;;;;;36.49;20.90;98070.53;4814706;29;19929;-64
2023/05/07 13:08:46;;;;;;;;;;;;;;;36.44;21.45;98068.56;4821272;29;19921;-64
2023/05/07 13:11:12;;;;;;;;;;;;;;;35.46;21.46;98061.44;4806868;29;19931;-64
2023/05/07 13:13:38;;;;;;;;;;;;;;;33.56;22.84;98064.09;4841047;29;19920;-64
2023/05/07 13:16:03;;;;;;;;;;;;;;;32.61;24.78;98069.69;4842225;29;20462;-64
2023/05/07 13:18:32;;;;;;;;;;;;;;;32.98;24.45;98057.44;4812915;29;20016;-64
2023/05/07 13:20:57;;;;;;;;;;;;;;;32.17;24.58;98062.50;4837691;29;19928;-64
2023/05/07 13:23:22;;;;;;;;;;;;;;;32.39;25.04;98056.06;4842163;29;19928;-64
2023/05/07 13:25:48;;;;;;;;;;;;;;;31.95;24.99;98054.31;4834039;29;19928;-64
2023/05/07 13:28:13;;;;;;;;;;;;;;;31.10;26.38;98064.09;4817720;29;20348;-64
2023/05/07 13:30:38;;;;;;;;;;;;;;;30.95;26.80;98060.03;4809320;29;20528;-64
2023/05/07 13:33:03;;;;;;;;;;;;;;;31.43;28.62;98064.22;4842266;29;19920;-64
2023/05/07 13:35:29;;;;;;;;;;;;;;;31.47;28.31;98063.75;4834784;29;19916;-64
2023/05/07 13:37:54;;;;;;;;;;;;;;;30.56;27.63;98058.06;4841772;29;19928;-63
2023/05/07 13:40:20;;;;;;;;;;;;;;;30.65;28.80;98053.94;4834472;29;19959;-64
2023/05/07 13:42:45;;;;;;;;;;;;;;;30.62;28.10;98057.13;4828610;29;19932;-64
2023/05/07 13:45:10;;;;;;;;;;;;;;;30.54;28.29;98058.31;4841486;29;20435;-63
2023/05/07 13:47:35;;;;;;;;;;;;;;;30.00;28.76;98050.28;4835147;29;20382;-63
2023/05/07 13:50:01;;;;;;;;;;;;;;;30.35;28.46;98051.38;4835826;29;19971;-63
2023/05/07 13:52:26;;;;;;;;;;;;;;;30.03;28.26;98047.13;4817017;29;19956;-63
2023/05/07 13:54:52;;;;;;;;;;;;;;;29.98;29.77;98041.59;4820816;29;19952;-63
2023/05/07 13:57:17;;;;;;;;;;;;;;;30.15;28.28;98040.91;4841487;29;20356;-63
2023/05/07 13:59:42;;;;;;;;;;;;;;;30.98;27.55;98035.19;4818617;29;20007;-63
2023/05/07 14:02:08;;;;;;;;;;;;;;;30.92;27.41;98041.56;4840340;29;20067;-63
2023/05/07 14:04:34;;;;;;;;;;;;;;;31.23;27.62;98047.56;4824205;29;20004;-63
2023/05/07 14:06:59;;;;;;;;;;;;;;;31.12;27.95;98041.13;4825136;29;20367;-63
2023/05/07 14:09:25;;;;;;;;;;;;;;;30.66;27.49;98033.94;4825108;29;19924;-64
2023/05/07 14:11:51;;;;;;;;;;;;;;;30.30;28.33;98035.88;4801501;29;20019;-64
2023/05/07 14:14:17;;;;;;;;;;;;;;;30.57;28.19;98038.09;4826365;29;20403;-64
2023/05/07 14:16:42;;;;;;;;;;;;;;;31.40;27.06;98037.63;4842066;29;19923;-63
2023/05/07 14:19:07;;;;;;;;;;;;;;;33.10;24.90;98044.53;4839790;29;19952;-64
2023/05/07 14:21:32;;;;;;;;;;;;;;;32.78;25.57;98031.63;4833852;29;19954;-64
2023/05/07 14:23:57;;;;;;;;;;;;;;;32.32;25.78;98031.00;4826836;29;19964;-64
2023/05/07 14:26:23;;;;;;;;;;;;;;;32.95;24.80;98030.75;4837341;29;20363;-64
2023/05/07 14:28:48;;;;;;;;;;;;;;;33.88;24.07;98026.00;4811485;29;20019;-64
2023/05/07 14:31:13;;;;;;;;;;;;;;;33.50;24.88;98025.13;4837778;29;20279;-64
2023/05/07 14:33:38;;;;;;;;;;;;;;;33.24;24.51;98025.94;4830374;29;19920;-64
2023/05/07 14:36:04;;;;;;;;;;;;;;;32.08;25.45;98021.44;4835167;29;19921;-64
2023/05/07 14:38:30;;;;;;;;;;;;;;;32.06;26.85;98026.25;4840102;29;19928;-64
2023/05/07 14:40:56;;;;;;;;;;;;;;;31.58;27.19;98024.91;4833100;29;19921;-64
2023/05/07 14:43:21;;;;;;;;;;;;;;;30.88;27.96;98034.97;4832042;29;19928;-64
2023/05/07 14:45:46;;;;;;;;;;;;;;;30.55;27.32;98029.38;4806667;29;20589;-64
2023/05/07 14:48:14;;;;;;;;;;;;;;;30.20;28.18;98032.94;4830122;29;20528;-63
2023/05/07 14:50:40;;;;;;;;;;;;;;;29.66;29.83;98035.66;4837502;29;19956;-63
2023/05/07 14:53:05;;;;;;;;;;;;;;;29.68;29.04;98035.44;4831270;29;20040;-64
2023/05/07 14:55:30;;;;;;;;;;;;;;;28.83;29.64;98039.88;4830004;29;19952;-63
2023/05/07 14:57:56;;;;;;;;;;;;;;;28.87;29.25;98040.22;4834737;29;19978;-63
2023/05/07 15:00:21;;;;;;;;;;;;;;;28.98;30.25;98042.19;4808241;29;19966;-62
2023/05/07 15:02:46;;;;;;;;;;;;;;;28.78;29.98;98041.63;4826673;29;19967;-63
2023/05/07 15:05:11;;;;;;;;;;;;;;;28.71;30.88;98043.56;4809556;29;19951;-63
2023/05/07 15:07:36;;;;;;;;;;;;;;;28.70;31.10;98044.59;4809426;29;19920;-63
2023/05/07 15:10:02;;;;;;;;;;;;;;;28.72;31.03;98050.59;4840026;29;20031;-63
2023/05/07 15:12:27;;;;;;;;;;;;;;;28.80;30.77;98044.88;4838327;29;20015;-64
2023/05/07 15:14:52;;;;;;;;;;;;;;;28.94;30.60;98051.81;4841504;29;19927;-63
2023/05/07 15:17:17;;;;;;;;;;;;;;;29.03;30.96;98049.63;4825594;29;19917;-63
2023/05/07 15:19:43;;;;;;;;;;;;;;;29.26;30.00;98044.34;4820967;29;19921;-63
2023/05/07 15:22:08;;;;;;;;;;;;;;;29.87;29.96;98045.13;4838120;29;19928;-63
2023/05/07 15:24:33;;;;;;;;;;;;;;;29.61;31.18;98040.13;4816130;29;19921;-63
2023/05/07 15:26:58;;;;;;;;;;;;;;;29.08;31.33;98047.91;4829699;29;19927;-64
2023/05/07 15:29:24;;;;;;;;;;;;;;;28.91;30.68;98051.44;4825897;29;19921;-63
2023/05/07 15:31:50;;;;;;;;;;;;;;;28.75;31.28;98050.97;4835378;29;19917;-63
2023/05/07 15:34:15;;;;;;;;;;;;;;;28.54;30.83;98041.47;4823914;29;20366;-63
2023/05/07 15:36:40;;;;;;;;;;;;;;;28.53;31.03;98039.81;4833623;29;19963;-63
2023/05/07 15:39:06;;;;;;;;;;;;;;;28.37;32.08;98045.75;4816708;29;19952;-63
2023/05/07 15:41:31;;;;;;;;;;;;;;;28.34;32.26;98046.22;4824996;29;19921;-63
2023/05/07 15:43:56;;;;;;;;;;;;;;;28.04;31.90;98046.88;4834739;29;19925;-63
2023/05/07 15:46:24;;;;;;;;;;;;;;;27.97;32.00;98038.03;4833537;29;19916;-63
2023/05/07 15:48:49;;;;;;;;;;;;;;;27.56;32.94;98042.06;4802312;29;20303;-63
2023/05/07 15:51:14;;;;;;;;;;;;;;;27.28;33.23;98038.94;4820279;29;20383;-63
2023/05/07 15:53:40;;;;;;;;;;;;;;;27.11;33.64;98044.78;4821487;29;19966;-62
2023/05/07 15:56:05;;;;;;;;;;;;;;;26.68;34.37;98031.13;4831512;29;19921;-63
2023/05/07 15:58:31;;;;;;;;;;;;;;;26.56;34.88;98040.88;4821014;29;19920;-63
2023/05/07 16:00:56;;;;;;;;;;;;;;;26.17;34.87;98042.59;4816748;29;20015;-63
2023/05/07 16:03:21;;;;;;;;;;;;;;;26.09;35.50;98038.25;4815951;29;20019;-62
2023/05/07 16:05:47;;;;;;;;;;;;;;;25.99;36.16;98046.72;4835264;29;20019;-62
2023/05/07 16:08:12;;;;;;;;;;;;;;;25.60;35.78;98042.13;4802420;29;19924;-63
2023/05/07 16:10:37;;;;;;;;;;;;;;;25.36;36.11;98051.59;4816997;29;19928;-63
2023/05/07 16:13:03;;;;;;;;;;;;;;;25.17;36.68;98053.22;4816727;29;19932;-63
2023/05/07 16:15:28;;;;;;;;;;;;;;;24.99;37.45;98055.59;4835647;29;19929;-63
2023/05/07 16:17:56;;;;;;;;;;;;;;;24.83;37.22;98062.94;4824321;29;19927;-63
2023/05/07 16:20:22;;;;;;;;;;;;;;;24.69;38.09;98068.47;4840963;29;20017;-62
2023/05/07 16:22:47;;;;;;;;;;;;;;;24.35;37.96;98062.03;4821099;29;20528;-63
2023/05/07 16:25:13;;;;;;;;;;;;;;;24.22;38.59;98073.50;4818626;29;19981;-63
2023/05/07 16:27:38;;;;;;;;;;;;;;;24.00;39.03;98069.22;4817282;29;20295;-63
2023/05/07 16:30:04;;;;;;;;;;;;;;;24.17;38.66;98071.41;4823179;29;19935;-63
2023/05/07 16:32:29;;;;;;;;;;;;;;;23.91;39.62;98082.72;4823522;29;19916;-63
2023/05/07 16:34:54;;;;;;;;;;;;;;;23.74;39.97;98069.81;4837193;29;19952;-62
2023/05/07 16:37:20;;;;;;;;;;;;;;;23.53;40.21;98076.78;4823296;29;19968;-63
2023/05/07 16:39:45;;;;;;;;;;;;;;;23.42;40.31;98067.41;4840949;29;19963;-62
2023/05/07 16:42:10;;;;;;;;;;;;;;;23.30;40.77;98074.31;4840908;29;19928;-62
2023/05/07 16:44:35;;;;;;;;;;;;;;;23.25;41.23;98078.56;4841547;29;19960;-63
2023/05/07 16:47:01;;;;;;;;;;;;;;;23.17;41.68;98080.31;4838254;29;19947;-62
2023/05/07 16:49:26;;;;;;;;;;;;;;;22.97;41.19;98090.78;4841513;29;20042;-63
2023/05/07 16:51:51;;;;;;;;;;;;;;;22.85;41.97;98081.56;4816702;29;19964;-63
2023/05/07 16:54:17;;;;;;;;;;;;;;;22.74;42.23;98088.19;4837180;29;19924;-62
2023/05/07 16:56:42;;;;;;;;;;;;;;;22.58;42.39;98087.56;4823093;29;20307;-62
2023/05/07 16:59:08;;;;;;;;;;;;;;;22.49;42.75;98087.63;4808412;29;20342;-62
2023/05/07 17:01:34;;;;;;;;;;;;;;;22.32;42.86;98080.81;4824769;29;19928;-62
2023/05/07 17:03:59;;;;;;;;;;;;;;;22.20;43.75;98084.97;4826157;29;20016;-62
2023/05/07 17:06:24;;;;;;;;;;;;;;;22.17;43.65;98085.31;4840480;29;19920;-62
2023/05/07 17:08:50;;;;;;;;;;;;;;;22.07;44.21;98093.56;4820248;29;19928;-62
2023/05/07 17:11:15;;;;;;;;;;;;;;;21.96;44.54;98092.16;4819512;29;19942;-62
2023/05/07 17:13:41;;;;;;;;;;;;;;;21.90;45.36;98097.38;4824288;29;20407;-62
2023/05/07 17:16:06;;;;;;;;;;;;;;;21.82;45.38;98095.59;4808062;29;19935;-62
2023/05/07 17:18:31;;;;;;;;;;;;;;;21.71;45.83;98096.88;4816069;29;19936;-62
2023/05/07 17:20:56;;;;;;;;;;;;;;;21.68;46.04;98104.38;4804652;29;19925;-62
2023/05/07 17:23:21;;;;;;;;;;;;;;;21.60;46.65;98099.09;4834987;29;19946;-62